createdAt,value
2022-11-29T00:00:41.797Z,37.55
2022-11-29T00:03:08.259Z,27.73
2022-11-29T00:05:35.100Z,31.00
2022-11-29T00:08:01.551Z,28.20
2022-11-29T00:10:27.955Z,31.63
2022-11-29T00:12:54.296Z,29.98
2022-11-29T00:15:20.816Z,36.72
2022-11-29T00:17:48.160Z,30.92
2022-11-29T00:20:14.538Z,29.90
2022-11-29T00:22:40.923Z,20.08
2022-11-29T00:25:07.494Z,34.83
2022-11-29T00:27:33.881Z,35.17
2022-11-29T00:30:00.290Z,34.08
2022-11-29T00:32:26.763Z,29.15
2022-11-29T00:34:53.251Z,29.63
2022-11-29T00:37:19.662Z,32.53
2022-11-29T00:39:46.031Z,35.83
2022-11-29T00:42:12.511Z,36.13
2022-11-29T00:44:38.834Z,32.92
2022-11-29T00:47:05.223Z,31.63
2022-11-29T00:49:31.579Z,33.25
2022-11-29T00:51:57.983Z,29.23
2022-11-29T00:54:24.459Z,29.95
2022-11-29T00:56:50.897Z,29.23
2022-11-29T00:59:17.252Z,29.75
2022-11-29T01:01:44.135Z,38.78
2022-11-29T01:04:10.657Z,33.42
2022-11-29T01:06:37.278Z,34.58
2022-11-29T01:09:04.967Z,36.25
2022-11-29T01:11:31.376Z,33.85
2022-11-29T01:14:00.500Z,32.42
2022-11-29T01:16:28.355Z,32.90
2022-11-29T01:18:54.753Z,33.80
2022-11-29T01:21:24.015Z,32.72
2022-11-29T01:23:52.123Z,31.25
2022-11-29T01:26:20.915Z,35.90
2022-11-29T01:28:49.378Z,35.25
2022-11-29T01:31:22.535Z,34.13
2022-11-29T01:33:49.193Z,35.70
2022-11-29T01:36:15.549Z,28.77
2022-11-29T01:38:45.061Z,27.80
2022-11-29T01:41:26.956Z,32.60
2022-11-29T01:43:57.997Z,33.97
2022-11-29T01:46:24.991Z,29.60
2022-11-29T01:48:56.096Z,30.33
2022-11-29T01:51:22.692Z,33.97
2022-11-29T01:53:49.147Z,32.15
2022-11-29T01:56:16.292Z,33.88
2022-11-29T01:58:44.819Z,31.65
2022-11-29T02:01:11.357Z,34.78
2022-11-29T02:03:37.894Z,37.08
2022-11-29T02:06:06.147Z,32.50
2022-11-29T02:08:37.622Z,32.40
2022-11-29T02:11:19.185Z,34.83
2022-11-29T02:14:43.320Z,36.65
2022-11-29T02:17:30.849Z,28.88
2022-11-29T02:20:22.690Z,33.63
2022-11-29T02:22:57.781Z,35.63
2022-11-29T02:25:46.096Z,33.55
2022-11-29T02:28:15.482Z,32.95
2022-11-29T02:30:50.985Z,29.48
2022-11-29T02:33:32.510Z,32.88
2022-11-29T02:36:17.734Z,32.72
2022-11-29T02:38:58.709Z,29.08
2022-11-29T02:42:10.070Z,36.42
2022-11-29T02:47:26.697Z,32.67
2022-11-29T02:50:08.988Z,30.00
2022-11-29T02:53:01.360Z,33.97
2022-11-29T02:55:38.339Z,38.05
2022-11-29T02:58:25.115Z,31.17
2022-11-29T03:01:09.124Z,37.17
2022-11-29T03:04:03.054Z,32.10
2022-11-29T03:07:10.036Z,32.03
2022-11-29T03:09:46.649Z,34.80
2022-11-29T03:12:26.089Z,33.65
2022-11-29T03:15:17.447Z,36.65
2022-11-29T03:18:00.993Z,35.83
2022-11-29T03:20:39.186Z,33.13
2022-11-29T03:23:27.473Z,34.42
2022-11-29T03:26:04.675Z,32.53
2022-11-29T03:28:49.195Z,32.92
2022-11-29T03:31:25.846Z,34.00
2022-11-29T03:34:20.268Z,34.30
2022-11-29T03:37:12.997Z,33.08
2022-11-29T03:40:02.247Z,33.50
2022-11-29T03:42:38.310Z,38.58
2022-11-29T03:45:13.211Z,32.67
2022-11-29T03:47:51.440Z,36.10
2022-11-29T03:50:25.070Z,33.83
2022-11-29T03:53:28.946Z,26.60
2022-11-29T03:56:03.635Z,36.75
2022-11-29T03:58:44.981Z,40.05
2022-11-29T04:01:43.544Z,35.50
2022-11-29T04:04:31.887Z,34.13
2022-11-29T04:06:58.177Z,37.10
2022-11-29T04:09:30.270Z,38.63
2022-11-29T04:12:15.328Z,33.17
2022-11-29T04:15:10.528Z,38.13
2022-11-29T04:18:01.708Z,34.67
2022-11-29T04:21:06.961Z,38.03
2022-11-29T04:23:55.396Z,32.47
2022-11-29T04:26:51.080Z,35.55
2022-11-29T04:29:26.610Z,35.22
2022-11-29T04:32:18.001Z,38.15
2022-11-29T04:34:55.038Z,34.60
2022-11-29T04:37:52.302Z,35.08
2022-11-29T04:40:18.560Z,38.17
2022-11-29T04:43:19.949Z,34.00
2022-11-29T04:46:12.921Z,36.92
2022-11-29T04:49:00.799Z,33.60
2022-11-29T04:51:57.736Z,27.42
2022-11-29T04:54:36.276Z,34.45
2022-11-29T04:57:19.769Z,41.42
2022-11-29T04:59:59.953Z,41.50
2022-11-29T05:02:26.283Z,38.08
2022-11-29T05:05:04.572Z,38.83
2022-11-29T05:07:39.353Z,31.58
2022-11-29T05:10:23.066Z,32.78
2022-11-29T05:12:59.428Z,34.40
2022-11-29T05:15:56.065Z,33.78
2022-11-29T05:18:57.340Z,33.80
2022-11-29T05:21:47.553Z,35.65
2022-11-29T05:24:38.267Z,34.40
2022-11-29T05:27:18.221Z,33.83
2022-11-29T05:30:01.208Z,34.10
2022-11-29T05:32:36.867Z,33.15
2022-11-29T05:35:40.350Z,33.42
2022-11-29T05:38:50.719Z,36.80
2022-11-29T05:41:38.641Z,37.55
2022-11-29T05:44:13.263Z,29.33
2022-11-29T05:46:57.479Z,31.88
2022-11-29T05:49:49.015Z,34.50
2022-11-29T05:52:26.822Z,29.10
2022-11-29T05:55:03.245Z,34.33
2022-11-29T05:57:48.047Z,34.30
2022-11-29T06:00:16.940Z,30.02
2022-11-29T06:02:58.266Z,37.22
2022-11-29T06:05:45.712Z,31.55
2022-11-29T06:08:36.352Z,31.48
2022-11-29T06:11:24.738Z,34.05
2022-11-29T06:14:13.599Z,35.75
2022-11-29T06:17:18.541Z,38.05
2022-11-29T06:20:10.121Z,30.27
2022-11-29T06:22:42.426Z,37.85
2022-11-29T06:25:27.568Z,39.67
2022-11-29T06:28:31.760Z,33.15
2022-11-29T06:31:39.808Z,41.88
2022-11-29T06:34:09.310Z,36.03
2022-11-29T06:36:47.461Z,37.33
2022-11-29T06:39:14.596Z,42.50
2022-11-29T06:41:40.965Z,40.13
2022-11-29T06:44:07.736Z,35.72
2022-11-29T06:46:47.617Z,37.10
2022-11-29T06:49:24.722Z,27.80
2022-11-29T06:54:41.465Z,34.75
2022-11-29T06:57:17.181Z,32.10
2022-11-29T06:59:59.211Z,32.47
2022-11-29T07:02:42.778Z,29.52
2022-11-29T07:05:34.277Z,35.22
2022-11-29T07:08:19.339Z,30.83
2022-11-29T07:10:49.845Z,31.90
2022-11-29T07:13:18.057Z,29.98
2022-11-29T07:16:02.444Z,31.67
2022-11-29T07:18:39.306Z,33.50
2022-11-29T07:21:08.350Z,36.28
2022-11-29T07:23:45.277Z,33.63
2022-11-29T07:26:35.029Z,30.00
2022-11-29T07:29:22.806Z,34.20
2022-11-29T07:32:09.799Z,31.58
2022-11-29T07:34:57.711Z,31.80
2022-11-29T07:37:35.084Z,28.38
2022-11-29T07:40:23.755Z,33.38
2022-11-29T07:42:56.324Z,31.15
2022-11-29T07:45:29.478Z,35.53
2022-11-29T07:47:55.835Z,34.22
2022-11-29T07:50:22.278Z,31.45
2022-11-29T07:52:49.042Z,33.95
2022-11-29T07:55:19.188Z,34.08
2022-11-29T07:57:46.103Z,34.03
2022-11-29T08:00:13.419Z,34.63
2022-11-29T08:02:40.525Z,32.63
2022-11-29T08:05:07.606Z,35.00
2022-11-29T08:07:35.755Z,32.92
2022-11-29T08:10:02.709Z,36.58
2022-11-29T08:12:29.083Z,30.80
2022-11-29T08:14:55.582Z,38.90
2022-11-29T08:17:22.128Z,39.83
2022-11-29T08:19:48.499Z,35.08
2022-11-29T08:22:14.867Z,37.05
2022-11-29T08:24:41.288Z,31.48
2022-11-29T08:27:07.702Z,29.45
2022-11-29T08:29:34.160Z,34.58
2022-11-29T08:32:00.605Z,35.85
2022-11-29T08:34:27.514Z,31.33
2022-11-29T08:36:56.914Z,40.80
2022-11-29T08:39:23.667Z,36.88
2022-11-29T08:41:50.218Z,30.45
2022-11-29T08:44:16.758Z,37.30
2022-11-29T08:47:01.808Z,32.67
2022-11-29T08:49:28.162Z,27.00
2022-11-29T08:52:14.456Z,33.10
2022-11-29T08:54:40.810Z,32.22
2022-11-29T08:59:53.555Z,29.70
2022-11-29T09:02:20.033Z,35.90
2022-11-29T09:04:46.637Z,28.05
2022-11-29T09:07:13.208Z,35.80
2022-11-29T09:09:39.572Z,29.88
2022-11-29T09:12:08.539Z,30.38
2022-11-29T09:14:35.007Z,30.80
2022-11-29T09:17:01.667Z,28.85
2022-11-29T09:19:28.459Z,28.98
2022-11-29T09:21:54.838Z,33.70
2022-11-29T09:24:21.215Z,27.20
2022-11-29T09:26:50.213Z,31.00
2022-11-29T09:29:17.354Z,30.55
2022-11-29T09:31:45.194Z,28.23
2022-11-29T09:34:16.263Z,24.95
2022-11-29T09:36:45.548Z,26.23
2022-11-29T09:39:14.858Z,31.52
2022-11-29T09:41:59.830Z,28.17
2022-11-29T09:44:54.992Z,29.58
2022-11-29T09:47:31.818Z,31.13
2022-11-29T09:50:19.726Z,30.58
2022-11-29T09:53:17.375Z,24.63
2022-11-29T09:56:14.892Z,28.25
2022-11-29T09:58:48.119Z,32.47
2022-11-29T10:01:23.352Z,30.98
2022-11-29T10:03:54.291Z,27.85
2022-11-29T10:06:26.848Z,28.83
2022-11-29T10:09:04.514Z,27.25
2022-11-29T10:11:43.135Z,26.23
2022-11-29T10:14:18.038Z,27.35
2022-11-29T10:16:50.834Z,26.60
2022-11-29T10:19:17.191Z,23.48
2022-11-29T10:21:49.940Z,29.45
2022-11-29T10:24:20.426Z,28.50
2022-11-29T10:26:46.893Z,26.02
2022-11-29T10:29:15.172Z,27.20
2022-11-29T10:31:44.685Z,26.30
2022-11-29T10:34:20.333Z,28.00
2022-11-29T10:36:50.471Z,26.98
2022-11-29T10:39:25.365Z,26.33
2022-11-29T10:41:56.409Z,28.77
2022-11-29T10:44:24.214Z,24.85
2022-11-29T10:46:51.302Z,28.50
2022-11-29T10:49:20.713Z,29.15
2022-11-29T10:51:47.321Z,25.95
2022-11-29T10:54:41.729Z,30.95
2022-11-29T10:57:20.884Z,27.38
2022-11-29T11:00:11.415Z,24.48
2022-11-29T11:02:38.020Z,24.35
2022-11-29T11:05:18.306Z,28.90
2022-11-29T11:07:47.392Z,28.83
2022-11-29T11:10:26.359Z,30.73
2022-11-29T11:13:08.018Z,30.25
2022-11-29T11:15:36.761Z,27.27
2022-11-29T11:18:06.724Z,30.70
2022-11-29T11:20:36.368Z,28.52
2022-11-29T11:23:04.335Z,25.75
2022-11-29T11:25:37.084Z,22.98
2022-11-29T11:28:15.481Z,29.50
2022-11-29T11:30:54.289Z,26.92
2022-11-29T11:33:32.717Z,28.83
2022-11-29T11:36:04.203Z,26.67
2022-11-29T11:38:31.101Z,26.80
2022-11-29T11:41:12.380Z,23.45
2022-11-29T11:43:39.842Z,27.73
2022-11-29T11:46:08.113Z,25.70
2022-11-29T11:48:35.413Z,29.17
2022-11-29T11:51:01.827Z,22.90
2022-11-29T11:53:35.744Z,23.90
2022-11-29T11:56:07.098Z,23.25
2022-11-29T12:01:30.596Z,22.95
2022-11-29T12:03:56.905Z,24.15
2022-11-29T12:06:35.670Z,22.15
2022-11-29T12:09:36.126Z,24.38
2022-11-29T12:12:23.915Z,22.52
2022-11-29T12:14:59.612Z,24.48
2022-11-29T12:17:39.922Z,24.08
2022-11-29T12:20:32.662Z,20.58
2022-11-29T12:23:14.478Z,22.35
2022-11-29T12:25:58.239Z,22.45
2022-11-29T12:28:38.946Z,20.77
2022-11-29T12:31:42.693Z,25.35
2022-11-29T12:34:36.330Z,23.38
2022-11-29T12:37:24.162Z,23.23
2022-11-29T12:40:25.707Z,22.75
2022-11-29T12:43:02.794Z,25.42
2022-11-29T12:45:41.256Z,25.27
2022-11-29T12:48:42.770Z,25.80
2022-11-29T12:51:09.066Z,25.02
2022-11-29T12:53:38.134Z,22.40
2022-11-29T12:56:35.610Z,22.30
2022-11-29T12:59:20.363Z,21.50
2022-11-29T13:02:20.697Z,23.23
2022-11-29T13:05:18.852Z,23.98
2022-11-29T13:08:10.939Z,23.75
2022-11-29T13:10:49.372Z,22.45
2022-11-29T13:13:36.084Z,23.10
2022-11-29T13:16:20.227Z,20.83
2022-11-29T13:18:57.522Z,25.85
2022-11-29T13:21:37.244Z,20.23
2022-11-29T13:24:11.782Z,19.73
2022-11-29T13:26:40.443Z,19.77
2022-11-29T13:29:12.425Z,20.17
2022-11-29T13:31:39.664Z,17.92
2022-11-29T13:34:24.745Z,19.63
2022-11-29T13:37:00.303Z,23.17
2022-11-29T13:39:44.254Z,20.65
2022-11-29T13:42:44.981Z,24.35
2022-11-29T13:45:23.506Z,20.15
2022-11-29T13:47:59.007Z,19.77
2022-11-29T13:50:45.924Z,20.52
2022-11-29T13:53:19.003Z,19.30
2022-11-29T13:55:49.755Z,23.80
2022-11-29T13:58:17.961Z,21.25
2022-11-29T14:00:44.684Z,27.10
2022-11-29T14:03:23.295Z,24.40
2022-11-29T14:05:52.628Z,24.27
2022-11-29T14:08:55.108Z,20.80
2022-11-29T14:11:27.156Z,23.67
2022-11-29T14:14:05.179Z,20.00
2022-11-29T14:16:37.725Z,21.70
2022-11-29T14:19:09.888Z,19.90
2022-11-29T14:22:07.546Z,21.42
2022-11-29T14:24:37.113Z,20.05
2022-11-29T14:27:06.542Z,20.92
2022-11-29T14:29:48.512Z,20.17
2022-11-29T14:32:46.403Z,22.25
2022-11-29T14:35:13.001Z,20.83
2022-11-29T14:37:51.316Z,20.48
2022-11-29T14:40:42.006Z,20.52
2022-11-29T14:43:26.495Z,21.85
2022-11-29T14:46:07.605Z,21.35
2022-11-29T14:48:34.739Z,21.20
2022-11-29T14:51:11.812Z,20.52
2022-11-29T14:53:39.479Z,19.70
2022-11-29T14:56:31.609Z,22.50
2022-11-29T14:59:35.783Z,19.48
2022-11-29T15:02:06.978Z,18.75
2022-11-29T15:04:35.892Z,15.80
2022-11-29T15:07:04.333Z,17.42
2022-11-29T15:09:33.575Z,18.60
2022-11-29T15:12:08.390Z,22.20
2022-11-29T15:14:58.179Z,18.45
2022-11-29T15:17:37.991Z,18.02
2022-11-29T15:20:23.030Z,20.15
2022-11-29T15:22:52.446Z,20.00
2022-11-29T15:25:23.161Z,14.88
2022-11-29T15:27:54.950Z,18.65
2022-11-29T15:30:28.377Z,19.13
2022-11-29T15:32:55.509Z,18.58
2022-11-29T15:35:22.146Z,19.17
2022-11-29T15:37:49.650Z,20.45
2022-11-29T15:40:17.574Z,18.83
2022-11-29T15:42:57.916Z,21.30
2022-11-29T15:45:36.443Z,19.35
2022-11-29T15:48:19.386Z,19.30
2022-11-29T15:51:00.658Z,20.70
2022-11-29T15:53:35.289Z,17.25
2022-11-29T15:56:04.049Z,21.30
2022-11-29T15:58:33.484Z,19.27
2022-11-29T16:01:01.396Z,18.40
2022-11-29T16:03:32.867Z,21.27
2022-11-29T16:06:15.603Z,19.88
2022-11-29T16:08:43.654Z,17.52
2022-11-29T16:11:17.154Z,16.77
2022-11-29T16:14:02.947Z,16.65
2022-11-29T16:16:32.566Z,15.15
2022-11-29T16:19:10.400Z,14.65
2022-11-29T16:21:36.811Z,14.63
2022-11-29T16:24:18.131Z,16.08
2022-11-29T16:26:46.382Z,15.60
2022-11-29T16:29:28.634Z,14.20
2022-11-29T16:31:55.528Z,15.48
2022-11-29T16:34:29.853Z,15.95
2022-11-29T16:37:02.301Z,15.13
2022-11-29T16:39:29.453Z,12.85
2022-11-29T16:42:13.846Z,12.18
2022-11-29T16:44:40.232Z,11.48
2022-11-29T16:47:20.273Z,11.48
2022-11-29T16:50:09.497Z,12.93
2022-11-29T16:52:35.859Z,13.80
2022-11-29T16:55:02.228Z,15.00
2022-11-29T16:57:29.782Z,14.18
2022-11-29T16:59:56.150Z,13.18
2022-11-29T17:02:22.694Z,14.65
2022-11-29T17:04:50.818Z,11.65
2022-11-29T17:07:30.193Z,14.45
2022-11-29T17:09:57.031Z,17.67
2022-11-29T17:12:23.414Z,11.13
2022-11-29T17:14:49.830Z,14.68
2022-11-29T17:17:18.006Z,15.27
2022-11-29T17:19:44.986Z,15.57
2022-11-29T17:22:12.090Z,13.65
2022-11-29T17:24:41.188Z,14.50
2022-11-29T17:27:11.313Z,10.98
2022-11-29T17:29:37.690Z,12.13
2022-11-29T17:32:04.298Z,14.75
2022-11-29T17:34:30.808Z,14.63
2022-11-29T17:36:57.478Z,13.35
2022-11-29T17:39:23.819Z,14.55
2022-11-29T17:41:50.161Z,15.18
2022-11-29T17:44:16.558Z,15.55
2022-11-29T17:46:42.979Z,10.88
2022-11-29T17:49:10.539Z,14.57
2022-11-29T17:51:54.273Z,15.93
2022-11-29T17:54:22.347Z,17.80
2022-11-29T17:56:49.354Z,15.35
2022-11-29T17:59:15.730Z,14.98
2022-11-29T18:01:42.258Z,16.02
2022-11-29T18:04:08.690Z,15.10
2022-11-29T18:06:40.159Z,14.52
2022-11-29T18:09:09.850Z,14.48
2022-11-29T18:11:47.057Z,12.02
2022-11-29T18:14:17.016Z,17.27
2022-11-29T18:16:45.247Z,14.07
2022-11-29T18:19:14.133Z,15.88
2022-11-29T18:21:40.570Z,12.95
2022-11-29T18:24:07.371Z,14.82
2022-11-29T18:26:34.931Z,11.55
2022-11-29T18:29:01.556Z,18.45
2022-11-29T18:31:33.632Z,18.35
2022-11-29T18:34:02.449Z,12.88
2022-11-29T18:36:34.401Z,12.95
2022-11-29T18:39:03.674Z,14.95
2022-11-29T18:41:32.577Z,11.90
2022-11-29T18:44:03.797Z,12.07
2022-11-29T18:46:33.213Z,11.85
2022-11-29T18:49:00.983Z,11.93
2022-11-29T18:51:29.002Z,10.75
2022-11-29T18:53:55.544Z,16.00
2022-11-29T18:56:23.533Z,15.48
2022-11-29T18:58:58.813Z,10.57
2022-11-29T19:01:28.095Z,11.93
2022-11-29T19:03:58.512Z,12.35
2022-11-29T19:06:27.778Z,14.90
2022-11-29T19:08:54.725Z,10.20
2022-11-29T19:11:23.725Z,11.02
2022-11-29T19:14:01.534Z,12.80
2022-11-29T19:16:30.310Z,11.65
2022-11-29T19:18:57.998Z,11.45
2022-11-29T19:21:26.382Z,13.35
2022-11-29T19:23:54.759Z,14.63
2022-11-29T19:26:22.746Z,13.63
2022-11-29T19:28:49.790Z,10.95
2022-11-29T19:31:18.964Z,42.25
2022-11-29T19:33:46.285Z,36.85
2022-11-29T19:36:15.106Z,22.73
2022-11-29T19:38:43.304Z,30.17
2022-11-29T19:41:15.161Z,18.25
2022-11-29T19:43:41.694Z,32.28
2022-11-29T19:46:12.779Z,14.68
2022-11-29T19:48:39.550Z,15.98
2022-11-29T19:51:07.089Z,11.75
2022-11-29T19:53:34.463Z,13.43
2022-11-29T19:56:10.370Z,11.45
2022-11-29T19:58:36.841Z,11.35
2022-11-29T20:01:12.733Z,12.75
2022-11-29T20:03:39.443Z,14.13
2022-11-29T20:06:06.671Z,11.77
2022-11-29T20:08:33.485Z,11.45
2022-11-29T20:11:17.867Z,13.32
2022-11-29T20:13:47.725Z,13.95
2022-11-29T20:16:18.128Z,17.33
2022-11-29T20:18:50.632Z,17.92
2022-11-29T20:21:20.568Z,13.95
2022-11-29T20:23:47.357Z,16.08
2022-11-29T20:26:16.654Z,15.48
2022-11-29T20:28:43.949Z,13.07
2022-11-29T20:31:13.644Z,11.20
2022-11-29T20:33:42.160Z,12.98
2022-11-29T20:36:30.427Z,12.07
2022-11-29T20:39:18.667Z,10.15
2022-11-29T20:42:16.206Z,14.88
2022-11-29T20:44:55.502Z,12.07
2022-11-29T20:47:24.643Z,11.63
2022-11-29T20:49:51.454Z,11.07
2022-11-29T20:52:42.358Z,9.82
2022-11-29T20:55:08.937Z,10.15
2022-11-29T20:57:38.143Z,10.05
2022-11-29T21:00:07.611Z,13.45
2022-11-29T21:02:34.036Z,10.27
2022-11-29T21:05:00.460Z,10.30
2022-11-29T21:07:27.151Z,9.52
2022-11-29T21:09:56.690Z,10.07
2022-11-29T21:12:27.847Z,8.32
2022-11-29T21:14:54.538Z,10.02
2022-11-29T21:17:21.071Z,11.40
2022-11-29T21:19:47.728Z,10.88
2022-11-29T21:22:42.394Z,9.98
2022-11-29T21:25:49.845Z,14.02
2022-11-29T21:28:17.280Z,14.35
2022-11-29T21:30:44.364Z,14.15
2022-11-29T21:33:11.281Z,15.93
2022-11-29T21:35:39.770Z,14.27
2022-11-29T21:38:10.040Z,16.20
2022-11-29T21:40:36.406Z,17.65
2022-11-29T21:43:02.736Z,14.75
2022-11-29T21:45:29.073Z,17.67
2022-11-29T21:47:59.903Z,14.30
2022-11-29T21:50:26.386Z,14.05
2022-11-29T21:52:53.003Z,11.50
2022-11-29T21:55:19.461Z,12.10
2022-11-29T21:57:45.806Z,11.27
2022-11-29T22:00:12.655Z,14.45
2022-11-29T22:02:39.169Z,11.77
2022-11-29T22:05:07.826Z,14.10
2022-11-29T22:07:34.227Z,12.55
2022-11-29T22:10:10.055Z,11.88
2022-11-29T22:12:42.857Z,13.27
2022-11-29T22:15:13.877Z,12.82
2022-11-29T22:17:40.368Z,12.48
2022-11-29T22:20:07.439Z,11.43
2022-11-29T22:22:33.813Z,15.02
2022-11-29T22:25:00.149Z,14.50
2022-11-29T22:27:26.483Z,16.05
2022-11-29T22:29:52.812Z,13.55
2022-11-29T22:32:19.290Z,12.40
2022-11-29T22:34:45.902Z,14.15
2022-11-29T22:37:13.645Z,21.73
2022-11-29T22:39:39.996Z,20.67
2022-11-29T22:42:06.309Z,20.40
2022-11-29T22:44:32.650Z,13.88
2022-11-29T22:46:59.041Z,15.60
2022-11-29T22:49:25.503Z,15.05
2022-11-29T22:51:52.338Z,14.95
2022-11-29T22:54:18.798Z,14.65
2022-11-29T22:56:45.722Z,14.43
2022-11-29T22:59:12.606Z,15.20
2022-11-29T23:01:40.867Z,15.40
2022-11-29T23:04:09.942Z,14.52
2022-11-29T23:06:42.015Z,16.30
2022-11-29T23:09:21.553Z,16.48
2022-11-29T23:11:55.700Z,14.40
2022-11-29T23:14:23.167Z,15.20
2022-11-29T23:16:49.706Z,17.15
2022-11-29T23:19:16.615Z,15.63
2022-11-29T23:21:45.432Z,16.77
2022-11-29T23:24:12.207Z,17.67
2022-11-29T23:26:40.915Z,17.60
2022-11-29T23:29:13.748Z,16.20
2022-11-29T23:31:40.640Z,12.02
2022-11-29T23:34:07.663Z,18.70
2022-11-29T23:36:34.796Z,16.30
2022-11-29T23:39:01.432Z,15.98
2022-11-29T23:41:27.894Z,19.02
2022-11-29T23:43:54.409Z,19.75
2022-11-29T23:46:23.982Z,18.98
2022-11-29T23:48:51.276Z,21.42
2022-11-29T23:51:18.605Z,17.77
2022-11-29T23:53:46.550Z,21.85
2022-11-29T23:56:15.913Z,20.38
2022-11-29T23:58:43.559Z,21.70
